Time;durP1;ratioP1;P1;durP2;ratioP2;P2;SDS_P1;SDS_P2;PMS_P1;PMS_P2;Temp;Humidity;BMP_temperature;BMP_pressure;BME280_temperature;BME280_humidity;BME280_pressure;Samples;Min_cycle;Max_cycle;Signal;HPM_P1;HPM_P2
2022/11/30 00:01:19;;;;;;;13.18;10.20;;;;;;;7.27;76.20;96898.78;5032806;28;20075;-77
2022/11/30 00:03:47;;;;;;;13.50;10.27;;;;;;;7.26;76.00;96901.53;5032574;28;20498;-77
2022/11/30 00:06:21;;;;;;;13.05;10.10;;;;;;;7.25;75.09;96905.09;5032615;28;20049;-77
2022/11/30 00:08:49;;;;;;;13.98;9.98;;;;;;;7.23;74.93;96897.47;5032026;28;20111;-77
2022/11/30 00:11:19;;;;;;;12.75;9.88;;;;;;;7.19;74.73;96902.16;5032468;28;20048;-77
2022/11/30 00:13:47;;;;;;;14.85;10.30;;;;;;;7.16;74.62;96893.84;5032580;28;20053;-77
2022/11/30 00:16:15;;;;;;;13.95;10.07;;;;;;;7.12;74.38;96901.13;5032324;28;20045;-77
2022/11/30 00:18:43;;;;;;;15.18;11.32;;;;;;;7.08;74.39;96893.81;5032237;28;20053;-77
2022/11/30 00:21:12;;;;;;;14.10;10.32;;;;;;;7.04;74.42;96897.66;5032335;28;20053;-77
2022/11/30 00:23:43;;;;;;;14.30;10.40;;;;;;;7.01;74.72;96894.41;5031676;28;20045;-77
2022/11/30 00:26:13;;;;;;;16.05;11.02;;;;;;;6.97;74.65;96892.28;5032395;28;20499;-77
2022/11/30 00:28:42;;;;;;;14.10;10.73;;;;;;;6.95;75.05;96892.44;5032243;28;20071;-77
2022/11/30 00:31:12;;;;;;;14.52;10.80;;;;;;;6.94;75.48;96888.19;5032321;28;20053;-77
2022/11/30 00:33:41;;;;;;;15.57;9.90;;;;;;;6.94;75.52;96888.19;5032063;28;20045;-77
2022/11/30 00:36:11;;;;;;;15.00;10.85;;;;;;;6.95;75.55;96889.84;5032173;28;20054;-77
2022/11/30 00:38:39;;;;;;;16.75;11.48;;;;;;;6.93;75.21;96891.78;5032122;28;20061;-77
2022/11/30 00:41:09;;;;;;;15.23;10.77;;;;;;;6.93;75.17;96896.13;5032117;28;20069;-77
2022/11/30 00:43:36;;;;;;;14.73;11.02;;;;;;;6.92;75.13;96900.50;5032163;28;20431;-77
2022/11/30 00:46:04;;;;;;;16.40;11.45;;;;;;;6.89;74.94;96893.03;5031852;28;20049;-77
2022/11/30 00:48:32;;;;;;;15.52;10.77;;;;;;;6.85;74.88;96891.72;5031795;28;20051;-77
2022/11/30 00:51:00;;;;;;;14.60;10.75;;;;;;;6.81;75.08;96892.97;5031793;28;20049;-77
2022/11/30 00:53:27;;;;;;;16.52;11.30;;;;;;;6.77;75.55;96897.63;5032157;28;20248;-77
2022/11/30 00:55:55;;;;;;;14.38;10.88;;;;;;;6.76;75.86;96905.59;5032002;28;20057;-77
2022/11/30 00:58:24;;;;;;;17.23;12.15;;;;;;;6.75;75.94;96896.16;5031787;28;20053;-77
2022/11/30 01:00:51;;;;;;;16.77;11.63;;;;;;;6.74;76.11;96897.94;5031847;28;20096;-77
2022/11/30 01:03:19;;;;;;;16.85;12.52;;;;;;;6.74;75.62;96897.13;5032081;28;20056;-77
2022/11/30 01:05:46;;;;;;;17.55;12.90;;;;;;;6.76;75.75;96895.22;5031836;28;20503;-77
2022/11/30 01:08:14;;;;;;;16.08;11.40;;;;;;;6.78;75.65;96903.66;5031637;28;20053;-77
2022/11/30 01:10:43;;;;;;;15.30;10.88;;;;;;;6.78;75.44;96906.25;5031842;28;20107;-77
2022/11/30 01:13:12;;;;;;;17.15;12.20;;;;;;;6.76;75.55;96903.81;5037350;28;20045;-77
2022/11/30 01:15:43;;;;;;;18.73;12.63;;;;;;;6.73;75.88;96904.09;5046140;28;20080;-77
2022/11/30 01:18:11;;;;;;;17.60;12.13;;;;;;;6.73;75.87;96913.66;5037714;28;20045;-77
2022/11/30 01:20:40;;;;;;;15.65;10.73;;;;;;;6.71;75.83;96912.97;5032618;28;20045;-77
2022/11/30 01:23:08;;;;;;;18.10;11.88;;;;;;;6.71;75.78;96915.56;5036435;28;20029;-77
2022/11/30 01:25:35;;;;;;;16.58;11.95;;;;;;;6.71;75.86;96921.59;5046740;28;20055;-77
2022/11/30 01:28:03;;;;;;;17.67;12.23;;;;;;;6.70;75.81;96924.31;5045916;28;20049;-78
2022/11/30 01:30:30;;;;;;;16.35;10.90;;;;;;;6.70;75.60;96926.91;5035246;28;20045;-77
2022/11/30 01:33:03;;;;;;;18.17;12.20;;;;;;;6.74;75.83;96925.66;5032414;28;20042;-77
2022/11/30 01:35:30;;;;;;;18.45;12.85;;;;;;;6.75;75.94;96925.50;5035519;28;20503;-77
2022/11/30 01:37:58;;;;;;;15.82;10.85;;;;;;;6.77;76.20;96927.94;5035410;28;20057;-77
2022/11/30 01:40:25;;;;;;;16.65;12.20;;;;;;;6.81;76.67;96934.47;5034776;28;20419;-77
2022/11/30 01:42:53;;;;;;;19.48;13.55;;;;;;;6.83;76.56;96932.53;5035857;28;20481;-77
2022/11/30 01:45:21;;;;;;;18.23;12.45;;;;;;;6.85;75.72;96928.00;5035845;28;20061;-77
2022/11/30 01:47:52;;;;;;;18.95;12.98;;;;;;;6.85;76.39;96928.00;5034139;28;20055;-77
2022/11/30 01:50:26;;;;;;;18.65;12.65;;;;;;;6.86;75.47;96934.81;5036013;28;20483;-77
2022/11/30 01:52:56;;;;;;;16.08;11.30;;;;;;;6.87;76.41;96938.25;5035037;28;20045;-77
2022/11/30 01:55:29;;;;;;;17.92;12.63;;;;;;;6.87;76.52;96939.06;5035499;28;20049;-77
2022/11/30 01:58:01;;;;;;;19.55;13.73;;;;;;;6.87;75.97;96933.06;5034661;28;20050;-77
2022/11/30 02:00:29;;;;;;;17.48;12.77;;;;;;;6.86;76.23;96931.41;5035346;28;20060;-76
2022/11/30 02:03:02;;;;;;;17.38;12.48;;;;;;;6.86;76.56;96937.41;5035260;28;20068;-77
2022/11/30 02:05:33;;;;;;;17.92;12.88;;;;;;;6.88;77.49;96938.06;5035231;28;20057;-77
2022/11/30 02:08:01;;;;;;;19.23;14.15;;;;;;;6.90;77.05;96943.94;5034995;28;20053;-77
2022/11/30 02:10:32;;;;;;;20.63;14.88;;;;;;;6.91;76.53;96936.94;5034992;28;20111;-77
2022/11/30 02:13:22;;;;;;;23.05;15.32;;;;;;;6.86;74.35;96932.22;5034948;28;20052;-77
2022/11/30 02:16:03;;;;;;;20.70;14.43;;;;;;;6.84;75.58;96936.75;5034868;28;20052;-77
2022/11/30 02:18:36;;;;;;;20.65;14.82;;;;;;;6.83;74.82;96937.72;5034844;28;20456;-77
2022/11/30 02:21:13;;;;;;;22.85;15.68;;;;;;;6.83;75.01;96945.50;5034978;28;20045;-77
2022/11/30 02:24:05;;;;;;;23.17;15.82;;;;;;;6.83;73.88;96944.69;5034681;28;20053;-77
2022/11/30 02:26:55;;;;;;;23.90;15.30;;;;;;;6.83;73.10;96948.09;5023686;28;20060;-77
2022/11/30 02:29:28;;;;;;;22.70;15.02;;;;;;;6.79;73.22;96949.34;5034546;28;20053;-77
2022/11/30 02:32:05;;;;;;;22.48;14.77;;;;;;;6.76;72.86;96953.06;5038734;28;20036;-77
2022/11/30 02:34:35;;;;;;;19.90;14.73;;;;;;;6.74;72.02;96949.81;5054278;28;20041;-77
2022/11/30 02:37:06;;;;;;;24.92;16.08;;;;;;;6.68;71.84;96941.81;5044575;28;20124;-77
2022/11/30 02:39:34;;;;;;;24.58;16.65;;;;;;;6.67;73.58;96948.78;5033477;28;20053;-77
2022/11/30 02:42:01;;;;;;;23.83;16.95;;;;;;;6.66;74.46;96947.13;5032877;28;20053;-76
2022/11/30 02:44:30;;;;;;;23.80;16.80;;;;;;;6.64;73.46;96943.88;5032540;28;20050;-77
2022/11/30 02:47:07;;;;;;;26.55;17.10;;;;;;;6.63;72.53;96946.63;5031082;28;20045;-77
2022/11/30 02:49:43;;;;;;;24.67;17.20;;;;;;;6.59;72.72;96935.72;5033699;28;20050;-77
2022/11/30 02:52:12;;;;;;;28.60;19.15;;;;;;;6.59;72.85;96946.09;5034328;28;20404;-77
2022/11/30 02:54:40;;;;;;;26.15;18.10;;;;;;;6.58;72.02;96947.88;5033540;28;20049;-77
2022/11/30 02:57:08;;;;;;;28.25;18.45;;;;;;;6.57;72.99;96943.66;5033272;28;20426;-77
2022/11/30 02:59:38;;;;;;;28.67;18.63;;;;;;;6.55;72.24;96940.38;5033087;28;20435;-77
2022/11/30 03:02:05;;;;;;;26.17;18.17;;;;;;;6.55;72.25;96945.56;5033673;28;20555;-77
2022/11/30 03:04:33;;;;;;;28.20;18.88;;;;;;;6.55;72.85;96942.97;5033698;28;20060;-77
2022/11/30 03:07:00;;;;;;;26.30;18.50;;;;;;;6.58;73.24;96949.63;5033530;28;20045;-77
2022/11/30 03:09:28;;;;;;;25.77;18.10;;;;;;;6.57;72.75;96954.00;5033689;28;20057;-77
2022/11/30 03:11:55;;;;;;;26.85;18.27;;;;;;;6.56;72.57;96960.19;5033768;28;20053;-77
2022/11/30 03:14:23;;;;;;;31.50;20.17;;;;;;;6.54;72.07;96950.91;5033881;28;20053;-77
2022/11/30 03:16:52;;;;;;;30.83;19.45;;;;;;;6.51;73.08;96954.59;5033704;28;20079;-77
2022/11/30 03:19:19;;;;;;;27.58;19.73;;;;;;;6.50;72.75;96957.34;5033281;28;20053;-77
2022/11/30 03:21:47;;;;;;;32.28;21.67;;;;;;;6.48;72.24;96959.28;5033591;28;20084;-77
2022/11/30 03:24:15;;;;;;;32.05;21.25;;;;;;;6.46;71.59;96961.19;5033586;28;20466;-77
2022/11/30 03:26:42;;;;;;;35.60;20.63;;;;;;;6.39;71.11;96958.38;5033151;28;20049;-77
2022/11/30 03:29:10;;;;;;;30.83;19.98;;;;;;;6.33;71.43;96964.16;5033574;28;20053;-77
2022/11/30 03:31:37;;;;;;;32.55;21.00;;;;;;;6.29;72.05;96957.63;5033435;28;20045;-77
2022/11/30 03:34:07;;;;;;;31.75;21.30;;;;;;;6.27;71.60;96964.72;5033355;28;20049;-77
2022/11/30 03:36:34;;;;;;;32.58;20.13;;;;;;;6.24;71.34;96962.44;5033455;28;20045;-77
2022/11/30 03:39:02;;;;;;;32.25;19.77;;;;;;;6.21;71.70;96958.38;5033357;28;20060;-77
2022/11/30 03:41:30;;;;;;;32.25;20.75;;;;;;;6.18;71.87;96961.22;5033448;28;20061;-77
2022/11/30 03:43:57;;;;;;;29.25;20.27;;;;;;;6.16;71.96;96951.00;5033183;28;20053;-77
2022/11/30 03:46:26;;;;;;;29.83;19.73;;;;;;;6.16;72.17;96953.59;5033227;28;20064;-77
2022/11/30 03:48:54;;;;;;;31.33;20.85;;;;;;;6.15;71.59;96951.97;5032806;28;20056;-77
2022/11/30 03:51:23;;;;;;;31.80;20.42;;;;;;;6.15;71.20;96959.75;5033262;28;20462;-77
2022/11/30 03:53:50;;;;;;;31.30;20.42;;;;;;;6.13;70.93;96947.91;5032922;28;20056;-77
2022/11/30 03:56:18;;;;;;;33.25;20.90;;;;;;;6.06;71.19;96946.88;5032932;28;20107;-77
2022/11/30 03:58:45;;;;;;;32.78;18.35;;;;;;;6.01;71.38;96947.28;5032530;28;20053;-77
2022/11/30 04:01:15;;;;;;;29.02;18.67;;;;;;;6.00;72.28;96953.41;5032787;28;20053;-77
2022/11/30 04:03:43;;;;;;;35.00;18.90;;;;;;;6.01;72.11;96962.00;5033023;28;20057;-77
2022/11/30 04:06:12;;;;;;;30.08;17.75;;;;;;;5.99;71.65;96954.38;5032388;28;20046;-77
2022/11/30 04:08:41;;;;;;;32.55;18.95;;;;;;;5.94;71.13;96956.56;5032519;28;20057;-77
2022/11/30 04:11:09;;;;;;;30.02;18.88;;;;;;;5.92;71.90;96959.28;5032939;28;20065;-77
2022/11/30 04:13:38;;;;;;;29.38;18.17;;;;;;;5.89;71.46;96951.00;5032697;28;20392;-77
2022/11/30 04:16:06;;;;;;;30.88;18.40;;;;;;;5.86;71.69;96951.25;5032601;28;20152;-77
2022/11/30 04:18:35;;;;;;;31.90;19.75;;;;;;;5.84;71.44;96955.78;5032286;28;20053;-77
2022/11/30 04:21:04;;;;;;;30.52;19.95;;;;;;;5.81;71.38;96953.47;5032857;28;20420;-77
2022/11/30 04:23:33;;;;;;;31.88;20.08;;;;;;;5.76;71.72;96952.13;5032940;28;20041;-77
2022/11/30 04:26:04;;;;;;;30.27;19.27;;;;;;;5.76;73.46;96959.91;5032649;28;20053;-77
2022/11/30 04:28:31;;;;;;;29.95;18.42;;;;;;;5.79;72.75;96963.97;5032357;28;20050;-78
2022/11/30 04:30:59;;;;;;;29.83;18.00;;;;;;;5.80;73.23;96962.22;5032344;28;20049;-77
2022/11/30 04:33:27;;;;;;;29.67;17.63;;;;;;;5.83;73.55;96961.91;5032633;28;20103;-77
2022/11/30 04:35:56;;;;;;;28.48;17.50;;;;;;;5.83;72.58;96959.34;5032526;28;20056;-77
2022/11/30 04:38:25;;;;;;;27.52;17.58;;;;;;;5.82;72.46;96963.69;5031860;28;20054;-77
2022/11/30 04:40:53;;;;;;;27.63;17.58;;;;;;;5.81;73.38;96966.44;5032195;28;20053;-77
2022/11/30 04:43:22;;;;;;;24.30;16.40;;;;;;;5.81;72.79;96966.44;5032377;28;20056;-77
2022/11/30 04:45:50;;;;;;;26.92;16.55;;;;;;;5.83;72.68;96965.31;5032159;28;20057;-77
2022/11/30 04:48:19;;;;;;;27.70;17.13;;;;;;;5.82;72.58;96968.06;5032238;28;20053;-77
2022/11/30 04:50:46;;;;;;;27.95;18.00;;;;;;;5.80;72.20;96968.22;5032554;28;20427;-77
2022/11/30 04:53:14;;;;;;;27.98;16.63;;;;;;;5.80;72.40;96977.75;5032290;28;20050;-78
2022/11/30 04:55:41;;;;;;;29.70;18.02;;;;;;;5.77;72.66;96976.25;5032381;28;20053;-77
2022/11/30 04:58:09;;;;;;;28.95;18.42;;;;;;;5.71;72.50;96977.63;5031419;28;20046;-77
2022/11/30 05:00:38;;;;;;;26.90;16.88;;;;;;;5.71;72.75;96976.84;5032419;28;20066;-77
2022/11/30 05:03:05;;;;;;;26.88;16.38;;;;;;;5.75;74.07;96973.81;5032359;28;20053;-77
2022/11/30 05:05:33;;;;;;;23.83;16.42;;;;;;;5.81;75.13;96967.22;5032343;28;20128;-77
2022/11/30 05:08:00;;;;;;;29.65;17.38;;;;;;;5.85;74.85;96980.72;5031580;28;20622;-77
2022/11/30 05:10:29;;;;;;;27.70;16.38;;;;;;;5.84;74.02;96976.47;5035021;28;20053;-77
2022/11/30 05:12:57;;;;;;;25.52;16.65;;;;;;;5.86;73.69;96974.56;5035680;28;20408;-77
2022/11/30 05:15:25;;;;;;;24.20;15.65;;;;;;;5.87;73.26;96983.97;5036183;28;20427;-77
2022/11/30 05:17:58;;;;;;;25.02;16.55;;;;;;;5.89;72.60;96989.84;5056270;28;20065;-77
2022/11/30 05:20:25;;;;;;;25.45;16.23;;;;;;;5.91;72.67;96982.75;5052805;28;20049;-77
2022/11/30 05:22:53;;;;;;;23.00;14.60;;;;;;;5.93;72.77;96981.63;5037096;28;20049;-77
2022/11/30 05:25:21;;;;;;;26.05;15.77;;;;;;;5.94;73.39;96983.28;5036131;28;20064;-77
2022/11/30 05:27:48;;;;;;;26.25;16.02;;;;;;;5.94;73.22;96987.63;5035701;28;20053;-78
2022/11/30 05:30:16;;;;;;;23.55;15.13;;;;;;;5.97;73.76;96989.97;5035967;28;20053;-76
2022/11/30 05:32:43;;;;;;;26.45;15.65;;;;;;;6.00;73.90;96989.69;5035880;28;20049;-78
2022/11/30 05:35:12;;;;;;;23.48;14.52;;;;;;;6.01;73.55;96993.88;5035645;28;20503;-77
2022/11/30 05:37:40;;;;;;;25.23;15.32;;;;;;;6.03;74.70;96991.97;5035632;28;20049;-77
2022/11/30 05:40:09;;;;;;;25.20;15.07;;;;;;;6.04;74.03;97003.16;5035196;28;20511;-77
2022/11/30 05:42:36;;;;;;;26.95;16.15;;;;;;;6.08;74.85;97002.72;5035242;28;20050;-77
2022/11/30 05:45:04;;;;;;;27.40;16.38;;;;;;;6.08;74.15;97002.72;5034845;28;20405;-77
2022/11/30 05:47:32;;;;;;;28.88;15.80;;;;;;;6.06;73.39;97007.25;5035418;28;20045;-76
2022/11/30 05:50:00;;;;;;;27.98;17.45;;;;;;;6.05;73.99;97004.78;5034329;28;20064;-77
2022/11/30 05:52:28;;;;;;;24.50;15.05;;;;;;;6.07;73.86;97005.47;5033584;28;20052;-77
2022/11/30 05:54:58;;;;;;;26.17;15.48;;;;;;;6.07;73.51;97001.09;5028064;28;20042;-77
2022/11/30 05:57:25;;;;;;;25.13;15.30;;;;;;;6.10;73.97;97007.75;5023460;28;20049;-77
2022/11/30 05:59:53;;;;;;;30.67;16.52;;;;;;;6.14;74.65;97001.31;5034614;28;20119;-77
2022/11/30 06:02:20;;;;;;;26.73;16.30;;;;;;;6.13;74.25;96997.94;5035143;28;20053;-78
2022/11/30 06:04:54;;;;;;;27.30;16.55;;;;;;;6.12;74.48;97001.50;5034699;28;20041;-77
2022/11/30 06:07:22;;;;;;;27.63;16.92;;;;;;;6.14;74.92;97003.91;5034390;28;20060;-76
2022/11/30 06:09:51;;;;;;;28.20;18.00;;;;;;;6.14;73.54;97012.53;5098775;22;20138;-76
2022/11/30 06:12:18;;;;;;;38.13;21.80;;;;;;;6.13;73.46;96997.94;5085879;28;20064;-76
2022/11/30 06:14:46;;;;;;;28.25;18.05;;;;;;;6.12;73.15;97009.25;5074461;28;20494;-76
2022/11/30 06:17:14;;;;;;;31.45;17.65;;;;;;;6.09;72.88;97001.75;5074291;28;20052;-76
2022/11/30 06:19:41;;;;;;;28.63;17.77;;;;;;;6.04;72.80;97001.38;5074863;28;20057;-76
2022/11/30 06:22:09;;;;;;;27.83;16.63;;;;;;;6.02;73.55;96997.31;5073485;28;20056;-77
2022/11/30 06:24:36;;;;;;;28.92;19.20;;;;;;;5.98;73.13;97000.16;5079009;28;20041;-76
2022/11/30 06:27:05;;;;;;;32.28;19.13;;;;;;;5.93;73.50;96993.78;5079401;28;20047;-77
2022/11/30 06:29:33;;;;;;;27.92;18.38;;;;;;;5.91;73.56;96993.09;5074176;28;20044;-76
2022/11/30 06:32:00;;;;;;;30.75;17.48;;;;;;;5.94;74.39;97000.56;5075378;28;20052;-77
2022/11/30 06:34:30;;;;;;;28.40;18.13;;;;;;;5.97;74.48;97000.34;5080467;28;20139;-77
2022/11/30 06:36:58;;;;;;;30.67;18.10;;;;;;;5.98;73.66;97001.94;5061431;28;20048;-77
2022/11/30 06:39:25;;;;;;;29.75;17.08;;;;;;;5.98;73.72;96999.38;5062117;28;20043;-78
2022/11/30 06:42:14;;;;;;;30.67;18.05;;;;;;;6.03;75.14;97006.69;5077144;28;20052;-75
2022/11/30 06:44:42;;;;;;;33.30;19.38;;;;;;;6.05;74.63;97003.00;5092713;28;20063;-77
2022/11/30 06:47:09;;;;;;;33.40;18.58;;;;;;;6.06;74.37;97001.25;5058297;28;20072;-78
2022/11/30 06:49:38;;;;;;;32.40;18.70;;;;;;;6.05;73.95;97000.41;5078653;28;20067;-77
2022/11/30 06:52:05;;;;;;;32.03;19.08;;;;;;;6.05;74.51;97005.59;5093910;28;20047;-77
2022/11/30 06:54:33;;;;;;;34.08;20.15;;;;;;;6.08;74.57;96999.31;5072349;28;20051;-76
2022/11/30 06:57:01;;;;;;;35.95;21.00;;;;;;;6.08;74.94;97005.31;5076299;28;20051;-77
2022/11/30 06:59:30;;;;;;;32.42;19.38;;;;;;;6.07;73.72;97002.88;5082412;28;20526;-78
2022/11/30 07:01:58;;;;;;;34.28;19.52;;;;;;;6.03;73.95;97007.50;5085088;28;20058;-77
2022/11/30 07:04:34;;;;;;;37.25;21.15;;;;;;;6.00;73.38;97007.00;5076891;28;20051;-77
2022/11/30 07:07:01;;;;;;;30.27;19.73;;;;;;;5.97;73.68;97013.28;5081145;28;20055;-77
2022/11/30 07:09:28;;;;;;;34.53;20.08;;;;;;;5.95;73.45;97005.66;5079177;28;20452;-77
2022/11/30 07:11:56;;;;;;;34.42;19.38;;;;;;;5.94;73.70;97008.34;5088552;28;20059;-77
2022/11/30 07:14:24;;;;;;;32.75;18.55;;;;;;;5.93;73.58;97001.53;5076812;28;20125;-78
2022/11/30 07:16:53;;;;;;;37.17;20.42;;;;;;;5.92;73.62;97005.06;5075679;28;20056;-78
2022/11/30 07:19:20;;;;;;;33.67;19.83;;;;;;;5.93;74.13;96994.59;5080662;28;20083;-78
2022/11/30 07:21:48;;;;;;;32.58;19.77;;;;;;;5.95;74.85;97004.84;5070448;28;20060;-77
2022/11/30 07:27:02;;;;;;;32.60;20.15;;;;;;;6.00;73.95;97007.81;5075523;28;20048;-77
2022/11/30 07:29:30;;;;;;;36.35;19.13;;;;;;;6.01;74.20;97004.25;5074473;28;20060;-76
2022/11/30 07:31:59;;;;;;;36.72;19.60;;;;;;;6.06;74.50;97009.81;5077368;28;20055;-77
2022/11/30 07:34:26;;;;;;;33.45;18.45;;;;;;;6.09;74.68;97012.13;5088442;28;20101;-78
2022/11/30 07:36:54;;;;;;;34.53;20.23;;;;;;;6.15;75.25;97014.16;5084388;28;20426;-78
2022/11/30 07:39:23;;;;;;;37.45;20.38;;;;;;;6.16;74.69;97010.56;5075522;28;20048;-78
2022/11/30 07:41:50;;;;;;;33.53;19.17;;;;;;;6.17;75.17;97007.03;5074632;28;20438;-78
2022/11/30 07:44:18;;;;;;;35.75;20.60;;;;;;;6.18;74.72;97003.47;5076334;28;20048;-78
2022/11/30 07:46:45;;;;;;;33.90;20.10;;;;;;;6.18;74.91;97013.84;5081529;28;20052;-77
2022/11/30 07:49:14;;;;;;;36.15;20.45;;;;;;;6.18;74.43;97016.44;5092121;28;20055;-78
2022/11/30 07:51:42;;;;;;;36.47;19.65;;;;;;;6.21;73.85;97009.34;5080904;28;20558;-78
2022/11/30 07:54:09;;;;;;;34.85;19.75;;;;;;;6.21;73.94;97017.09;5083213;28;20048;-78
2022/11/30 07:56:37;;;;;;;36.33;19.83;;;;;;;6.18;73.58;97019.03;5072611;28;20052;-78
2022/11/30 07:59:04;;;;;;;30.77;17.85;;;;;;;6.17;73.92;97017.41;5073327;28;20056;-78
2022/11/30 08:01:33;;;;;;;36.38;20.02;;;;;;;6.18;74.27;97026.78;5084080;28;20051;-78
2022/11/30 08:04:00;;;;;;;35.58;19.42;;;;;;;6.20;74.52;97031.84;5103278;28;20048;-78
2022/11/30 08:06:31;;;;;;;35.90;20.70;;;;;;;6.25;74.72;97034.00;5083257;28;20045;-78
2022/11/30 08:09:00;;;;;;;40.38;21.73;;;;;;;6.26;74.32;97027.88;5072072;28;20525;-77
2022/11/30 08:11:32;;;;;;;41.53;22.38;;;;;;;6.26;74.26;97033.06;5088617;28;20048;-77
2022/11/30 08:14:00;;;;;;;34.78;19.30;;;;;;;6.26;74.76;97033.06;5093370;28;20398;-78
2022/11/30 08:16:29;;;;;;;39.08;20.83;;;;;;;6.24;74.31;97034.97;5089027;28;20044;-77
2022/11/30 08:18:58;;;;;;;37.83;19.65;;;;;;;6.22;74.79;97042.88;5052324;28;20131;-77
2022/11/30 08:21:25;;;;;;;38.22;21.10;;;;;;;6.23;74.52;97039.34;5083366;28;20043;-77
2022/11/30 08:23:56;;;;;;;37.65;20.10;;;;;;;6.25;74.45;97037.41;5089522;28;20055;-78
2022/11/30 08:26:26;;;;;;;33.13;18.90;;;;;;;6.27;74.59;97040.66;5081438;28;20040;-78
2022/11/30 08:28:55;;;;;;;35.95;20.35;;;;;;;6.28;74.25;97046.69;5073111;28;20052;-78
2022/11/30 08:31:25;;;;;;;37.38;19.63;;;;;;;6.31;74.67;97043.78;5073728;28;20052;-77
2022/11/30 08:33:55;;;;;;;35.85;19.85;;;;;;;6.34;75.26;97046.09;5072863;28;20040;-78
2022/11/30 08:36:23;;;;;;;32.45;18.45;;;;;;;6.39;75.74;97046.47;5072171;28;20057;-78
2022/11/30 08:38:51;;;;;;;37.00;20.83;;;;;;;6.45;75.38;97043.31;5072388;28;20049;-78
2022/11/30 08:41:21;;;;;;;39.80;21.38;;;;;;;6.46;75.66;97052.72;5088759;28;20052;-77
2022/11/30 08:43:50;;;;;;;38.13;19.88;;;;;;;6.46;75.48;97057.09;5078520;28;20497;-78
2022/11/30 08:46:20;;;;;;;36.83;19.40;;;;;;;6.48;76.08;97061.16;5072075;28;20045;-78
2022/11/30 08:49:08;;;;;;;37.97;18.23;;;;;;;6.51;76.13;97053.09;5086229;28;20051;-78
2022/11/30 08:51:54;;;;;;;38.45;18.70;;;;;;;6.54;76.16;97055.41;5052154;28;20049;-78
2022/11/30 08:54:43;;;;;;;32.38;18.08;;;;;;;6.54;75.58;97058.00;5088474;28;20048;-77
2022/11/30 08:57:13;;;;;;;36.22;19.30;;;;;;;6.55;75.67;97051.03;5071759;28;20049;-78
2022/11/30 08:59:41;;;;;;;34.97;18.67;;;;;;;6.55;75.03;97051.03;5071568;28;20048;-77
2022/11/30 09:02:10;;;;;;;36.58;18.63;;;;;;;6.57;74.77;97052.50;5080324;28;20052;-77
2022/11/30 09:04:37;;;;;;;37.63;19.67;;;;;;;6.56;74.34;97061.25;5090281;28;20048;-77
2022/11/30 09:07:05;;;;;;;36.95;18.85;;;;;;;6.57;74.81;97062.88;5082553;28;20048;-77
2022/11/30 09:09:33;;;;;;;36.28;20.15;;;;;;;6.56;74.53;97056.06;5083161;28;20056;-77
2022/11/30 09:12:00;;;;;;;34.08;18.88;;;;;;;6.57;75.13;97057.69;5072750;28;20056;-77
2022/11/30 09:14:29;;;;;;;37.83;18.90;;;;;;;6.58;75.29;97059.34;5080811;28;20058;-77
2022/11/30 09:16:57;;;;;;;34.45;18.58;;;;;;;6.58;74.70;97064.53;5085229;28;20114;-77
2022/11/30 09:19:25;;;;;;;34.22;19.60;;;;;;;6.57;74.37;97062.88;5072659;28;20055;-76
2022/11/30 09:21:54;;;;;;;30.92;18.02;;;;;;;6.55;74.05;97059.63;5084539;28;20132;-77
2022/11/30 09:24:22;;;;;;;34.30;18.42;;;;;;;6.53;74.36;97056.34;5072400;28;20049;-76
2022/11/30 09:26:49;;;;;;;31.80;16.95;;;;;;;6.55;74.30;97058.81;5086099;28;20052;-76
2022/11/30 09:29:17;;;;;;;32.42;16.52;;;;;;;6.54;74.15;97047.63;5082143;28;20512;-77
2022/11/30 09:31:46;;;;;;;31.98;16.00;;;;;;;6.56;74.84;97056.06;5082429;28;20052;-77
2022/11/30 09:34:13;;;;;;;27.63;15.63;;;;;;;6.55;74.26;97044.06;5074214;28;20051;-77
2022/11/30 09:36:41;;;;;;;28.83;15.07;;;;;;;6.54;74.52;97058.00;5084743;28;20505;-77
2022/11/30 09:39:09;;;;;;;27.27;15.35;;;;;;;6.54;74.38;97052.81;5074763;28;20044;-77
2022/11/30 09:42:08;;;;;;;27.40;15.18;;;;;;;6.56;74.79;97056.06;5078494;28;20055;-77
2022/11/30 09:44:46;;;;;;;27.25;14.55;;;;;;;6.58;75.36;97051.56;5052249;28;20517;-77
2022/11/30 09:47:31;;;;;;;27.33;15.05;;;;;;;6.63;75.09;97050.31;5091941;28;20634;-77
2022/11/30 09:50:04;;;;;;;27.83;13.77;;;;;;;6.63;75.47;97045.94;5089275;28;20048;-77
2022/11/30 09:52:35;;;;;;;34.30;14.88;;;;;;;6.63;74.96;97055.50;5071783;28;20067;-77
2022/11/30 09:55:09;;;;;;;28.10;15.93;;;;;;;6.63;74.66;97050.31;5072370;28;20055;-77
2022/11/30 09:57:45;;;;;;;26.65;15.52;;;;;;;6.64;74.66;97052.75;5075197;28;20051;-77
2022/11/30 10:00:17;;;;;;;24.95;14.45;;;;;;;6.66;74.99;97055.19;5073365;28;20516;-78
2022/11/30 10:02:49;;;;;;;23.95;13.82;;;;;;;6.68;76.19;97053.28;5078927;28;20049;-77
2022/11/30 10:05:20;;;;;;;28.30;15.52;;;;;;;6.71;76.63;97053.81;5094545;28;20076;-77
2022/11/30 10:08:00;;;;;;;27.70;16.20;;;;;;;6.70;76.01;97054.75;5091928;28;20139;-77
2022/11/30 10:10:35;;;;;;;34.35;17.77;;;;;;;6.70;75.30;97056.53;5074328;28;20102;-78
2022/11/30 10:13:19;;;;;;;31.60;17.15;;;;;;;6.69;76.05;97060.09;5089492;28;20059;-77
2022/11/30 10:15:58;;;;;;;28.45;15.35;;;;;;;6.67;75.63;97056.81;5074225;28;20048;-78
2022/11/30 10:18:36;;;;;;;29.25;16.08;;;;;;;6.68;75.51;97059.28;5075198;28;20048;-78
2022/11/30 10:21:14;;;;;;;25.95;15.25;;;;;;;6.72;76.41;97047.66;5060434;28;20059;-78
2022/11/30 10:24:04;;;;;;;27.67;15.65;;;;;;;6.76;76.18;97053.38;5075008;28;20529;-79
2022/11/30 10:26:34;;;;;;;25.98;15.52;;;;;;;6.76;75.97;97063.75;5091696;28;20048;-78
2022/11/30 10:29:12;;;;;;;26.35;15.38;;;;;;;6.78;75.57;97054.03;5092537;28;20070;-78
2022/11/30 10:31:43;;;;;;;30.67;17.73;;;;;;;6.80;75.81;97055.53;5088874;28;20049;-78
2022/11/30 10:34:20;;;;;;;25.05;13.88;;;;;;;6.83;75.17;97051.00;5094916;28;20052;-78
2022/11/30 10:36:54;;;;;;;17.40;10.73;;;;;;;6.83;74.73;97051.81;5090624;28;20430;-78
2022/11/30 10:39:26;;;;;;;16.73;9.63;;;;;;;6.83;74.50;97045.81;5075449;28;20051;-78
2022/11/30 10:41:59;;;;;;;15.80;8.88;;;;;;;6.83;74.47;97046.63;5076071;28;20056;-78
2022/11/30 10:44:31;;;;;;;14.27;8.60;;;;;;;6.84;74.27;97048.25;5077491;28;20049;-78
2022/11/30 10:47:02;;;;;;;13.32;7.82;;;;;;;6.86;74.30;97040.31;5093572;28;20059;-78
2022/11/30 10:49:33;;;;;;;14.52;8.20;;;;;;;6.88;74.11;97036.63;5099759;28;20047;-78
2022/11/30 10:52:05;;;;;;;14.88;8.90;;;;;;;6.89;73.43;97046.03;5084281;28;20048;-78
2022/11/30 10:54:35;;;;;;;15.18;8.95;;;;;;;6.89;73.54;97046.03;5089147;28;20052;-78
2022/11/30 10:57:06;;;;;;;14.93;8.93;;;;;;;6.90;73.28;97039.88;5089129;28;20052;-78
2022/11/30 10:59:40;;;;;;;13.63;7.72;;;;;;;6.90;73.40;97042.47;5094182;28;20052;-78
2022/11/30 11:02:35;;;;;;;12.35;8.07;;;;;;;6.94;73.02;97038.63;5092590;28;20048;-77
2022/11/30 11:05:28;;;;;;;13.05;7.72;;;;;;;6.97;73.15;97038.31;5085827;28;20063;-78
2022/11/30 11:07:58;;;;;;;14.80;8.15;;;;;;;6.99;73.77;97031.22;5075415;28;20066;-78
2022/11/30 11:10:35;;;;;;;19.20;11.25;;;;;;;6.96;73.67;97026.31;5087114;28;20130;-77
2022/11/30 11:13:04;;;;;;;21.95;12.70;;;;;;;6.97;73.96;97027.13;5094070;28;20421;-78
2022/11/30 11:15:33;;;;;;;25.45;14.20;;;;;;;6.95;73.75;97029.06;5089144;28;20139;-78
2022/11/30 11:18:21;;;;;;;26.88;15.40;;;;;;;6.93;74.20;97023.19;5093541;28;20044;-78
2022/11/30 11:21:00;;;;;;;23.77;12.63;;;;;;;6.92;74.73;97024.19;5083861;28;20051;-78
2022/11/30 11:23:36;;;;;;;21.02;11.75;;;;;;;6.92;74.07;97029.38;5093667;28;20079;-78
2022/11/30 11:26:05;;;;;;;22.23;12.65;;;;;;;6.93;74.52;97024.03;5081598;28;20706;-78
2022/11/30 11:28:34;;;;;;;21.55;11.77;;;;;;;6.95;74.47;97021.28;5073223;28;20067;-78
2022/11/30 11:31:16;;;;;;;22.00;12.57;;;;;;;6.96;74.41;97025.53;5080055;28;20043;-77
2022/11/30 11:33:51;;;;;;;18.95;11.05;;;;;;;6.96;74.37;97021.13;5093465;28;20075;-79
2022/11/30 11:36:26;;;;;;;20.17;10.85;;;;;;;6.96;74.51;97021.13;5080588;28;20063;-78
2022/11/30 11:38:54;;;;;;;15.73;9.93;;;;;;;6.97;74.58;97027.13;5076547;28;20041;-79
2022/11/30 11:41:26;;;;;;;19.02;9.80;;;;;;;6.97;74.57;97029.72;5080464;28;20071;-77
2022/11/30 11:44:01;;;;;;;20.57;11.63;;;;;;;6.98;74.50;97021.00;5084056;28;20044;-78